Time;durP1;ratioP1;P1;durP2;ratioP2;P2;SDS_P1;SDS_P2;PMS_P1;PMS_P2;Temp;Humidity;BMP_temperature;BMP_pressure;BME280_temperature;BME280_humidity;BME280_pressure;Samples;Min_cycle;Max_cycle;Signal;HPM_P1;HPM_P2
2022/02/04 00:06:53;;;;;;;;;;;;;;;6.98;70.53;99892.30;1780053;79;20288;-78
2022/02/04 00:09:00;;;;;;;;;;;;;;;6.95;70.61;99893.88;1780770;79;20112;-79
2022/02/04 00:24:48;;;;;;;;;;;;;;;6.96;69.99;99897.69;1776779;78;20140;-80
2022/02/04 00:27:19;;;;;;;;;;;;;;;7.06;70.08;99894.22;1783284;79;21057;-80
2022/02/04 00:29:54;;;;;;;;;;;;;;;7.13;70.01;99892.67;1788408;79;20264;-81
2022/02/04 00:32:12;;;;;;;;;;;;;;;7.14;69.93;99897.78;1783289;79;20176;-81
2022/02/04 00:34:45;;;;;;;;;;;;;;;7.13;69.83;99889.59;1787639;79;20172;-81
2022/02/04 00:37:24;;;;;;;;;;;;;;;7.11;70.04;99887.56;1785638;79;20155;-82
2022/02/04 00:39:49;;;;;;;;;;;;;;;7.12;70.07;99889.72;1785359;78;20164;-81
2022/02/04 00:42:11;;;;;;;;;;;;;;;7.12;70.20;99885.30;1783730;79;20643;-82
2022/02/04 00:44:38;;;;;;;;;;;;;;;7.05;70.02;99880.25;1781316;79;20176;-82
2022/02/04 00:47:11;;;;;;;;;;;;;;;7.01;70.44;99876.27;1775672;79;20180;-81
2022/02/04 00:57:20;;;;;;;;;;;;;;;6.95;70.21;99878.13;1783729;78;20643;-80
2022/02/04 01:13:34;;;;;;;;;;;;;;;7.06;70.89;99843.84;1786601;79;20423;-79
2022/02/04 01:26:50;;;;;;;;;;;;;;;7.00;71.89;99822.09;1779131;79;20195;-80
2022/02/04 01:29:16;;;;;;;;;;;;;;;6.89;72.47;99830.12;1787738;79;20180;-78
2022/02/04 01:31:42;;;;;;;;;;;;;;;6.74;73.24;99825.31;1783101;79;21128;-79
2022/02/04 01:34:08;;;;;;;;;;;;;;;6.67;73.62;99824.70;1783627;78;20151;-79
2022/02/04 01:36:33;;;;;;;;;;;;;;;6.56;74.50;99823.86;1792442;78;20175;-78
2022/02/04 01:38:59;;;;;;;;;;;;;;;6.50;74.84;99820.97;1790295;78;20536;-79
2022/02/04 01:41:25;;;;;;;;;;;;;;;6.56;74.87;99813.86;1786440;79;20231;-80
2022/02/04 01:43:54;;;;;;;;;;;;;;;6.50;75.15;99823.59;1786295;79;21092;-80
2022/02/04 01:46:19;;;;;;;;;;;;;;;6.47;75.57;99818.95;1788501;79;20171;-79
2022/02/04 01:48:45;;;;;;;;;;;;;;;6.50;75.71;99820.97;1783366;79;20491;-81
2022/02/04 01:51:12;;;;;;;;;;;;;;;6.60;75.60;99821.32;1780117;79;20114;-80
2022/02/04 01:53:38;;;;;;;;;;;;;;;6.69;75.44;99819.64;1789610;79;20173;-80
2022/02/04 01:56:06;;;;;;;;;;;;;;;6.76;75.31;99820.75;1758873;79;21011;-80
2022/02/04 01:58:32;;;;;;;;;;;;;;;6.75;75.43;99813.02;1780942;79;20176;-80
2022/02/04 02:00:57;;;;;;;;;;;;;;;6.79;75.46;99812.59;1780665;79;20219;-81
2022/02/04 02:03:24;;;;;;;;;;;;;;;6.99;75.10;99815.17;1780684;79;20180;-80
2022/02/04 02:05:52;;;;;;;;;;;;;;;7.03;75.02;99806.55;1787034;78;20174;-80
2022/02/04 02:08:19;;;;;;;;;;;;;;;7.04;75.08;99806.88;1777485;79;21161;-81
2022/02/04 02:10:46;;;;;;;;;;;;;;;6.98;75.42;99800.41;1785063;79;20145;-80
2022/02/04 02:13:27;;;;;;;;;;;;;;;6.63;76.54;99793.95;1791415;78;20125;-80
2022/02/04 02:56:13;;;;;;;;;;;;;;;6.65;79.27;99781.55;1801985;78;20191;-80
2022/02/04 02:58:24;;;;;;;;;;;;;;;6.65;79.56;99778.92;1792109;78;20182;-80
2022/02/04 03:03:14;;;;;;;;;;;;;;;6.63;80.19;99780.84;1799127;78;20187;-79
2022/02/04 03:05:40;;;;;;;;;;;;;;;6.44;81.01;99781.19;1798079;79;20144;-80
2022/02/04 03:08:06;;;;;;;;;;;;;;;6.58;80.44;99779.13;1800056;79;20145;-80
2022/02/04 03:10:31;;;;;;;;;;;;;;;6.53;80.84;99774.79;1794384;78;20187;-80
2022/02/04 03:12:57;;;;;;;;;;;;;;;6.72;80.39;99777.38;1797885;79;21171;-80
2022/02/04 03:15:22;;;;;;;;;;;;;;;6.68;80.83;99779.95;1798443;78;20171;-80
2022/02/04 03:17:57;;;;;;;;;;;;;;;6.92;79.64;99776.04;1799514;78;20146;-80
2022/02/04 03:20:17;;;;;;;;;;;;;;;6.91;79.38;99767.31;1800020;78;20162;-79
2022/02/04 03:22:44;;;;;;;;;;;;;;;6.77;80.27;99771.70;1796745;77;20147;-80
2022/02/04 03:25:12;;;;;;;;;;;;;;;6.66;80.72;99771.38;1794925;79;20226;-80
2022/02/04 03:27:47;;;;;;;;;;;;;;;6.55;81.59;99772.84;1795189;79;20600;-80
2022/02/04 03:30:18;;;;;;;;;;;;;;;6.71;81.00;99767.87;1799788;78;20168;-80
2022/02/04 03:32:41;;;;;;;;;;;;;;;6.85;80.63;99764.44;1796933;79;20207;-80
2022/02/04 03:35:06;;;;;;;;;;;;;;;6.81;80.53;99768.66;1801184;79;20185;-80
2022/02/04 03:37:32;;;;;;;;;;;;;;;6.87;80.42;99762.48;1796354;78;20215;-80
2022/02/04 03:39:57;;;;;;;;;;;;;;;6.74;80.89;99767.59;1797286;79;20516;-80
2022/02/04 03:42:23;;;;;;;;;;;;;;;6.53;81.95;99770.86;1794805;79;20158;-80
2022/02/04 03:44:49;;;;;;;;;;;;;;;6.62;81.83;99768.70;1797265;78;20471;-80
2022/02/04 03:47:14;;;;;;;;;;;;;;;6.71;81.59;99760.00;1796108;78;20174;-80
2022/02/04 03:49:40;;;;;;;;;;;;;;;6.83;81.28;99757.52;1798656;79;21270;-80
2022/02/04 03:52:06;;;;;;;;;;;;;;;6.87;81.21;99757.23;1795582;78;20137;-80
2022/02/04 03:54:32;;;;;;;;;;;;;;;6.85;81.02;99749.51;1799650;78;20253;-79
2022/02/04 03:56:57;;;;;;;;;;;;;;;7.07;80.59;99762.80;1796917;79;20390;-80
2022/02/04 03:59:25;;;;;;;;;;;;;;;7.01;80.50;99756.81;1795447;79;20546;-80
2022/02/04 04:01:51;;;;;;;;;;;;;;;6.81;81.21;99763.41;1796445;79;20183;-80
2022/02/04 04:04:16;;;;;;;;;;;;;;;7.06;80.82;99768.20;1793957;79;20281;-80
2022/02/04 04:06:42;;;;;;;;;;;;;;;7.02;80.81;99755.82;1800432;78;20137;-80
2022/02/04 04:09:07;;;;;;;;;;;;;;;7.11;80.71;99757.59;1797079;78;20113;-79
2022/02/04 04:11:33;;;;;;;;;;;;;;;6.87;81.63;99759.86;1800332;78;20472;-79
2022/02/04 04:13:58;;;;;;;;;;;;;;;6.78;82.08;99757.13;1797719;78;21145;-81
2022/02/04 04:16:24;;;;;;;;;;;;;;;6.71;82.62;99750.81;1800303;78;20118;-81
2022/02/04 04:18:50;;;;;;;;;;;;;;;6.82;82.57;99750.64;1796478;78;20188;-78
2022/02/04 04:21:15;;;;;;;;;;;;;;;6.94;82.08;99754.41;1763115;79;20122;-81
2022/02/04 04:23:41;;;;;;;;;;;;;;;6.93;82.15;99754.05;1796289;78;20124;-78
2022/02/04 04:26:08;;;;;;;;;;;;;;;6.93;82.25;99751.42;1796539;78;21130;-81
2022/02/04 04:28:34;;;;;;;;;;;;;;;6.83;82.71;99750.96;1793685;79;20144;-81
2022/02/04 04:30:59;;;;;;;;;;;;;;;6.69;83.61;99746.17;1794716;79;20215;-81
2022/02/04 04:33:26;;;;;;;;;;;;;;;6.92;82.95;99744.54;1796734;79;20746;-81
2022/02/04 04:35:53;;;;;;;;;;;;;;;7.00;82.63;99744.15;1793981;78;20487;-80
2022/02/04 04:43:47;;;;;;;;;;;;;;;7.04;82.55;99743.40;1797828;79;20108;-79
2022/02/04 05:29:26;;;;;;;;;;;;;;;7.11;84.02;99719.52;1796761;79;20595;-79
2022/02/04 05:31:52;;;;;;;;;;;;;;;7.12;84.28;99718.55;1783708;79;20990;-79
2022/02/04 05:34:19;;;;;;;;;;;;;;;7.17;84.15;99718.94;1783233;78;20135;-79
2022/02/04 05:36:47;;;;;;;;;;;;;;;7.04;84.51;99718.45;1791279;78;20121;-80
2022/02/04 05:39:20;;;;;;;;;;;;;;;7.11;84.35;99719.52;1786555;79;20232;-79
2022/02/04 05:41:47;;;;;;;;;;;;;;;7.34;83.76;99727.03;1782279;78;20536;-80
2022/02/04 05:44:12;;;;;;;;;;;;;;;7.58;82.89;99727.79;1783055;79;20145;-79
2022/02/04 05:46:51;;;;;;;;;;;;;;;7.37;83.22;99720.17;1782846;79;20139;-79
2022/02/04 05:49:16;;;;;;;;;;;;;;;7.32;83.38;99718.48;1784072;78;20117;-78
2022/02/04 05:51:49;;;;;;;;;;;;;;;7.36;83.32;99722.45;1777225;78;20130;-78
2022/02/04 05:54:38;;;;;;;;;;;;;;;7.52;82.98;99714.77;1786476;79;20112;-79
2022/02/04 05:57:04;;;;;;;;;;;;;;;7.42;82.84;99723.67;1782156;79;20168;-80
2022/02/04 05:59:44;;;;;;;;;;;;;;;7.48;82.95;99719.97;1781816;79;20183;-79
2022/02/04 06:04:49;;;;;;;;;;;;;;;7.58;83.23;99716.46;1777162;78;20143;-79
2022/02/04 06:07:24;;;;;;;;;;;;;;;7.71;82.82;99713.00;1782296;78;20170;-79
2022/02/04 06:22:58;;;;;;;;;;;;;;;7.75;81.87;99730.11;1764315;78;20140;-81
2022/02/04 06:25:24;;;;;;;;;;;;;;;7.68;82.15;99735.63;1788047;79;20148;-81
2022/02/04 06:27:50;;;;;;;;;;;;;;;7.43;82.82;99741.11;1784724;79;20146;-81
2022/02/04 06:30:15;;;;;;;;;;;;;;;7.31;83.44;99739.96;1790364;78;20225;-81
2022/02/04 06:32:41;;;;;;;;;;;;;;;7.22;83.83;99746.58;1796501;79;20480;-81
2022/02/04 06:35:07;;;;;;;;;;;;;;;7.36;83.54;99746.94;1792412;79;21822;-78
2022/02/04 06:37:33;;;;;;;;;;;;;;;7.36;83.39;99742.15;1795438;79;20148;-78
2022/02/04 06:39:59;;;;;;;;;;;;;;;7.53;83.10;99737.42;1796935;77;20167;-80
2022/02/04 06:42:26;;;;;;;;;;;;;;;7.48;83.12;99737.05;1793219;79;20151;-79
2022/02/04 06:44:51;;;;;;;;;;;;;;;7.35;83.38;99739.20;1806439;78;20620;-80
2022/02/04 06:47:17;;;;;;;;;;;;;;;7.32;83.60;99742.13;1799658;78;21000;-79
2022/02/04 06:49:43;;;;;;;;;;;;;;;7.36;83.72;99740.84;1801500;79;20815;-79
2022/02/04 06:52:08;;;;;;;;;;;;;;;7.58;83.00;99744.05;1794233;79;20155;-79
2022/02/04 06:54:34;;;;;;;;;;;;;;;7.64;82.98;99748.72;1800400;79;20143;-79
2022/02/04 06:57:00;;;;;;;;;;;;;;;7.74;82.66;99749.50;1799125;79;20189;-79
2022/02/04 06:59:25;;;;;;;;;;;;;;;7.73;82.37;99750.47;1794958;78;21135;-78
2022/02/04 07:01:51;;;;;;;;;;;;;;;7.74;82.49;99745.56;1799418;78;20614;-80
2022/02/04 07:04:17;;;;;;;;;;;;;;;7.75;82.43;99745.88;1796029;79;20252;-80
2022/02/04 07:06:51;;;;;;;;;;;;;;;7.77;82.43;99741.32;1794639;78;20187;-80
2022/02/04 07:09:22;;;;;;;;;;;;;;;7.86;82.24;99739.12;1796280;78;20573;-79
2022/02/04 07:19:49;;;;;;;;;;;;;;;7.86;82.71;99729.92;1776402;79;20129;-80
2022/02/04 07:22:26;;;;;;;;;;;;;;;7.98;82.18;99717.86;1795012;78;20278;-78
2022/02/04 07:24:53;;;;;;;;;;;;;;;8.00;82.12;99723.78;1798425;79;20138;-77
2022/02/04 07:27:18;;;;;;;;;;;;;;;7.94;82.40;99725.70;1797589;79;20129;-78
2022/02/04 07:29:47;;;;;;;;;;;;;;;7.88;82.58;99730.58;1801633;78;20126;-77
2022/02/04 07:32:18;;;;;;;;;;;;;;;7.94;82.51;99737.52;1761161;79;20126;-77
2022/02/04 07:34:50;;;;;;;;;;;;;;;7.84;82.94;99730.53;1749985;80;20242;-79
2022/02/04 07:42:35;;;;;;;;;;;;;;;7.84;83.17;99723.95;1750407;80;20141;-79
2022/02/04 07:45:01;;;;;;;;;;;;;;;7.88;83.10;99725.33;1751233;80;20168;-79
2022/02/04 07:47:26;;;;;;;;;;;;;;;7.79;83.46;99723.59;1750688;80;20225;-80
2022/02/04 07:49:52;;;;;;;;;;;;;;;7.93;82.99;99721.44;1750365;80;21149;-79
2022/02/04 07:52:17;;;;;;;;;;;;;;;7.95;83.04;99714.22;1749769;80;20529;-79
2022/02/04 07:54:44;;;;;;;;;;;;;;;8.02;82.99;99728.42;1750430;80;20725;-81
2022/02/04 07:57:10;;;;;;;;;;;;;;;8.01;82.97;99726.77;1751398;80;20170;-79
2022/02/04 07:59:35;;;;;;;;;;;;;;;8.03;82.91;99733.53;1750101;80;20165;-80
2022/02/04 08:02:01;;;;;;;;;;;;;;;8.05;82.98;99733.38;1750324;80;21087;-79
2022/02/04 08:04:30;;;;;;;;;;;;;;;7.89;83.82;99735.34;1750228;82;20581;-79
2022/02/04 08:07:03;;;;;;;;;;;;;;;7.95;83.45;99736.06;1750760;80;20149;-79
2022/02/04 08:09:34;;;;;;;;;;;;;;;8.13;83.29;99724.75;1750544;80;20243;-82
2022/02/04 08:14:48;;;;;;;;;;;;;;;8.25;82.21;99729.61;1750107;80;20160;-81
2022/02/04 08:22:23;;;;;;;;;;;;;;;8.09;83.15;99720.25;1732903;79;20114;-81
2022/02/04 08:30:09;;;;;;;;;;;;;;;8.29;82.72;99724.05;1713153;82;20173;-79
2022/02/04 08:50:56;;;;;;;;;;;;;;;8.39;82.83;99728.72;1796843;78;20090;-81
2022/02/04 08:55:54;;;;;;;;;;;;;;;8.55;82.33;99719.67;1766792;79;20580;-80
2022/02/04 08:58:25;;;;;;;;;;;;;;;8.49;82.38;99726.86;1783655;79;20226;-80
2022/02/04 09:00:47;;;;;;;;;;;;;;;8.52;82.25;99722.61;1753838;79;20167;-80
2022/02/04 09:03:27;;;;;;;;;;;;;;;8.47;82.42;99724.04;1792601;78;20177;-80
2022/02/04 09:05:44;;;;;;;;;;;;;;;8.70;82.02;99723.05;1795826;79;20585;-81
2022/02/04 09:10:40;;;;;;;;;;;;;;;8.75;81.74;99728.20;1797733;78;20224;-81
2022/02/04 09:18:40;;;;;;;;;;;;;;;8.73;82.32;99717.48;1795451;79;21117;-82
2022/02/04 09:21:24;;;;;;;;;;;;;;;8.70;82.21;99721.73;1801211;78;20156;-83
2022/02/04 09:23:34;;;;;;;;;;;;;;;8.74;82.24;99723.91;1798005;78;20177;-83
2022/02/04 09:26:05;;;;;;;;;;;;;;;8.70;82.35;99719.11;1797437;79;20873;-81
2022/02/04 09:28:27;;;;;;;;;;;;;;;8.73;82.32;99722.28;1795556;79;20184;-83
2022/02/04 09:30:53;;;;;;;;;;;;;;;8.73;82.08;99712.22;1799445;79;21067;-81
2022/02/04 09:33:18;;;;;;;;;;;;;;;8.88;82.09;99710.66;1785392;79;20315;-81
2022/02/04 09:35:44;;;;;;;;;;;;;;;9.02;81.80;99704.48;1782755;78;20137;-83
2022/02/04 09:38:09;;;;;;;;;;;;;;;9.08;81.69;99701.23;1788915;78;20941;-84
2022/02/04 09:40:35;;;;;;;;;;;;;;;9.16;81.44;99703.89;1785060;78;20166;-79
2022/02/04 09:43:01;;;;;;;;;;;;;;;9.16;81.44;99694.67;1780758;79;21476;-81
2022/02/04 09:45:28;;;;;;;;;;;;;;;9.21;81.62;99696.33;1787545;79;20316;-80
2022/02/04 09:48:04;;;;;;;;;;;;;;;9.23;81.59;99691.75;1778657;79;21008;-82
2022/02/04 09:50:31;;;;;;;;;;;;;;;9.23;81.25;99693.53;1781089;79;20217;-83
2022/02/04 10:10:34;;;;;;;;;;;;;;;9.34;80.27;99688.81;1780923;79;20136;-80
2022/02/04 10:18:26;;;;;;;;;;;;;;;9.43;80.50;99687.52;1785832;79;20148;-81
2022/02/04 10:20:41;;;;;;;;;;;;;;;9.28;80.51;99674.96;1785610;79;20131;-81
2022/02/04 10:23:07;;;;;;;;;;;;;;;9.26;80.85;99682.21;1781387;79;21116;-81
2022/02/04 10:25:37;;;;;;;;;;;;;;;9.36;80.81;99683.89;1782524;79;20183;-80
2022/02/04 10:28:04;;;;;;;;;;;;;;;9.38;80.56;99675.32;1787252;78;20195;-80
2022/02/04 10:30:32;;;;;;;;;;;;;;;9.41;80.35;99669.73;1781921;78;20169;-80
2022/02/04 10:32:58;;;;;;;;;;;;;;;9.59;79.96;99670.44;1793556;78;20530;-81
2022/02/04 10:35:29;;;;;;;;;;;;;;;9.52;80.29;99660.20;1792782;78;21109;-81
2022/02/04 10:41:00;;;;;;;;;;;;;;;9.54;80.18;99667.47;1791877;78;20118;-82
2022/02/04 10:46:25;;;;;;;;;;;;;;;9.64;80.21;99660.22;1795119;78;20150;-78
2022/02/04 10:48:57;;;;;;;;;;;;;;;9.51;80.67;99662.52;1790001;79;20823;-80
2022/02/04 10:54:23;;;;;;;;;;;;;;;9.34;81.02;99654.56;1797682;79;20435;-80
2022/02/04 11:07:13;;;;;;;;;;;;;;;9.01;82.42;99654.11;1795119;79;20157;-80
2022/02/04 11:33:55;;;;;;;;;;;;;;;8.92;83.44;99636.16;1787773;79;21009;-83
2022/02/04 11:51:38;;;;;;;;;;;;;;;9.23;83.01;99637.73;1783365;79;20131;-83
2022/02/04 11:54:43;;;;;;;;;;;;;;;9.05;84.08;99634.38;1782322;79;20613;-83
2022/02/04 11:56:23;;;;;;;;;;;;;;;9.24;83.38;99626.70;1742607;79;20508;-83
2022/02/04 11:59:02;;;;;;;;;;;;;;;9.27;83.68;99621.92;1779509;79;20167;-82
2022/02/04 12:01:42;;;;;;;;;;;;;;;9.41;82.98;99619.66;1777809;79;20212;-82
2022/02/04 12:04:19;;;;;;;;;;;;;;;9.44;82.75;99612.75;1785577;79;20199;-82
2022/02/04 12:06:45;;;;;;;;;;;;;;;9.48;82.38;99611.45;1781033;79;20193;-84
2022/02/04 12:09:35;;;;;;;;;;;;;;;9.40;82.35;99610.09;1788345;79;21134;-85
2022/02/04 12:12:02;;;;;;;;;;;;;;;9.46;82.13;99604.17;1778628;79;20128;-82
2022/02/04 12:14:31;;;;;;;;;;;;;;;9.53;82.07;99607.82;1783367;79;20170;-82
2022/02/04 12:17:09;;;;;;;;;;;;;;;9.55;81.57;99601.88;1783375;79;20182;-82
2022/02/04 12:19:38;;;;;;;;;;;;;;;9.68;81.54;99607.52;1781201;79;20506;-82
2022/02/04 12:22:05;;;;;;;;;;;;;;;9.61;81.64;99605.69;1783548;78;21067;-83
2022/02/04 12:24:33;;;;;;;;;;;;;;;9.49;81.84;99599.42;1784285;79;20187;-82
2022/02/04 12:27:24;;;;;;;;;;;;;;;9.43;82.19;99604.03;1782098;79;20220;-83
2022/02/04 12:29:50;;;;;;;;;;;;;;;9.48;82.55;99600.91;1782644;79;20183;-83
2022/02/04 12:32:19;;;;;;;;;;;;;;;9.33;82.42;99600.20;1782399;78;20599;-82
2022/02/04 12:34:48;;;;;;;;;;;;;;;9.38;82.34;99605.49;1796060;78;21105;-83
2022/02/04 12:37:18;;;;;;;;;;;;;;;9.40;82.50;99591.65;1798975;78;20166;-81
2022/02/04 12:39:46;;;;;;;;;;;;;;;9.46;82.40;99596.27;1799677;78;20121;-83
2022/02/04 12:42:16;;;;;;;;;;;;;;;9.55;82.08;99590.02;1792157;79;21204;-82
2022/02/04 12:44:42;;;;;;;;;;;;;;;9.47;82.22;99591.34;1793605;78;20150;-84
2022/02/04 12:47:10;;;;;;;;;;;;;;;9.44;82.45;99591.67;1796742;79;21129;-84
2022/02/04 12:49:51;;;;;;;;;;;;;;;9.61;82.22;99590.69;1793776;79;20094;-83
2022/02/04 12:52:41;;;;;;;;;;;;;;;9.70;81.88;99593.66;1793535;79;20414;-82
2022/02/04 12:57:37;;;;;;;;;;;;;;;9.59;81.87;99585.27;1798026;78;20155;-82
2022/02/04 13:11:01;;;;;;;;;;;;;;;9.43;82.73;99571.56;1792394;79;20162;-81
2022/02/04 13:13:33;;;;;;;;;;;;;;;9.62;82.30;99568.63;1797548;78;22545;-82
2022/02/04 13:15:56;;;;;;;;;;;;;;;9.61;82.51;99569.59;1793898;79;20302;-81
2022/02/04 13:18:23;;;;;;;;;;;;;;;9.57;82.61;99564.34;1792119;78;20620;-81
2022/02/04 13:20:49;;;;;;;;;;;;;;;9.60;82.52;99561.38;1796396;78;20200;-83
2022/02/04 13:23:18;;;;;;;;;;;;;;;9.72;82.49;99561.05;1795105;78;20207;-84
2022/02/04 13:25:45;;;;;;;;;;;;;;;9.64;82.19;99560.05;1791890;77;21089;-83
2022/02/04 13:28:19;;;;;;;;;;;;;;;9.55;82.90;99559.71;1792917;78;20163;-83
2022/02/04 13:31:03;;;;;;;;;;;;;;;9.60;82.85;99562.70;1794664;78;20127;-80
2022/02/04 13:33:33;;;;;;;;;;;;;;;9.55;82.99;99555.76;1795057;79;20185;-80
2022/02/04 13:36:10;;;;;;;;;;;;;;;9.66;82.84;99551.97;1795400;78;20205;-79
2022/02/04 13:38:43;;;;;;;;;;;;;;;9.55;82.86;99555.76;1793555;78;20117;-80
2022/02/04 13:41:17;;;;;;;;;;;;;;;9.50;83.28;99555.44;1796824;79;20117;-80
2022/02/04 13:44:08;;;;;;;;;;;;;;;9.64;82.88;99554.77;1794809;78;20117;-80
2022/02/04 13:46:16;;;;;;;;;;;;;;;9.68;82.49;99546.88;1784723;78;20151;-80
2022/02/04 13:48:49;;;;;;;;;;;;;;;9.64;82.22;99541.59;1794065;78;20129;-81
2022/02/04 13:51:07;;;;;;;;;;;;;;;9.56;82.84;99549.51;1792590;79;20147;-80
2022/02/04 13:53:39;;;;;;;;;;;;;;;9.62;82.50;99551.48;1798535;78;21012;-80
2022/02/04 13:56:29;;;;;;;;;;;;;;;9.69;81.83;99556.44;1797082;78;20151;-80
2022/02/04 13:58:47;;;;;;;;;;;;;;;9.79;81.59;99548.83;1795076;78;20119;-80
2022/02/04 14:01:13;;;;;;;;;;;;;;;9.69;81.30;99547.69;1796940;79;20150;-80
2022/02/04 14:03:40;;;;;;;;;;;;;;;9.47;82.14;99555.26;1794831;78;21123;-79
2022/02/04 14:06:13;;;;;;;;;;;;;;;9.53;82.04;99551.16;1801622;78;20084;-80
2022/02/04 14:08:43;;;;;;;;;;;;;;;9.62;82.19;99551.48;1794007;78;20161;-79
2022/02/04 14:11:06;;;;;;;;;;;;;;;9.70;81.62;99546.20;1788248;79;20124;-81
2022/02/04 14:13:30;;;;;;;;;;;;;;;9.67;81.55;99541.27;1769254;79;20211;-81
2022/02/04 14:15:59;;;;;;;;;;;;;;;9.56;81.12;99549.51;1799572;79;21118;-81
2022/02/04 14:18:26;;;;;;;;;;;;;;;9.80;80.92;99553.13;1795253;78;20122;-80
2022/02/04 14:20:51;;;;;;;;;;;;;;;9.87;80.37;99547.52;1767207;79;20196;-81
2022/02/04 14:23:17;;;;;;;;;;;;;;;9.75;80.30;99543.07;1795922;78;20141;-79
2022/02/04 14:25:45;;;;;;;;;;;;;;;9.73;79.73;99536.34;1795750;79;20264;-80
2022/02/04 14:28:15;;;;;;;;;;;;;;;9.63;79.67;99543.08;1795413;78;20813;-79
2022/02/04 14:30:39;;;;;;;;;;;;;;;9.52;79.57;99535.00;1796262;78;20461;-79
2022/02/04 14:33:21;;;;;;;;;;;;;;;9.69;80.00;99534.50;1783658;78;20219;-80
2022/02/04 14:35:54;;;;;;;;;;;;;;;9.59;79.60;99522.82;1787763;78;20090;-80
2022/02/04 15:02:47;;;;;;;;;;;;;;;9.58;79.78;99525.11;1785709;78;20137;-78
2022/02/04 15:05:12;;;;;;;;;;;;;;;9.62;79.62;99526.45;1788665;78;20474;-79
2022/02/04 15:07:39;;;;;;;;;;;;;;;9.61;79.49;99527.92;1785075;78;20335;-79
2022/02/04 15:10:05;;;;;;;;;;;;;;;9.74;79.01;99528.73;1786941;79;20492;-78
2022/02/04 15:12:31;;;;;;;;;;;;;;;9.63;79.24;99528.10;1782629;79;20211;-78
2022/02/04 15:14:57;;;;;;;;;;;;;;;9.50;79.12;99535.67;1783679;78;20495;-79
2022/02/04 15:17:22;;;;;;;;;;;;;;;9.54;79.46;99529.09;1782968;79;20203;-78
2022/02/04 15:19:50;;;;;;;;;;;;;;;9.64;78.76;99532.36;1780097;78;21094;-79
2022/02/04 15:22:17;;;;;;;;;;;;;;;9.60;79.09;99529.75;1784605;79;20221;-78
2022/02/04 15:24:42;;;;;;;;;;;;;;;9.61;78.82;99527.42;1780846;78;20313;-80
2022/02/04 15:27:08;;;;;;;;;;;;;;;9.48;78.84;99531.06;1784093;79;21222;-79
2022/02/04 15:29:38;;;;;;;;;;;;;;;9.42;79.39;99530.41;1788172;78;20134;-79
2022/02/04 15:32:03;;;;;;;;;;;;;;;9.24;80.18;99531.86;1781778;79;20515;-80
2022/02/04 15:34:29;;;;;;;;;;;;;;;9.21;80.38;99530.36;1791839;79;20938;-79
2022/02/04 15:36:54;;;;;;;;;;;;;;;9.05;81.00;99532.98;1799638;79;20331;-78
2022/02/04 15:39:22;;;;;;;;;;;;;;;8.99;81.40;99529.17;1799093;78;20107;-79
2022/02/04 15:41:51;;;;;;;;;;;;;;;9.20;80.95;99527.89;1798577;79;20158;-79
2022/02/04 15:44:35;;;;;;;;;;;;;;;9.39;80.39;99532.05;1795899;79;21028;-80
2022/02/04 15:49:41;;;;;;;;;;;;;;;9.48;79.90;99523.16;1797344;78;21041;-80
2022/02/04 16:04:50;;;;;;;;;;;;;;;9.83;78.18;99517.19;1791493;79;20115;-79
2022/02/04 16:07:18;;;;;;;;;;;;;;;9.81;78.41;99519.99;1791344;79;20169;-79
2022/02/04 16:09:49;;;;;;;;;;;;;;;9.56;79.11;99513.92;1797870;79;20141;-80
2022/02/04 16:12:22;;;;;;;;;;;;;;;9.65;78.94;99516.89;1794562;79;20139;-78
2022/02/04 16:14:53;;;;;;;;;;;;;;;9.62;78.94;99508.50;1793848;79;20114;-80
2022/02/04 16:19:47;;;;;;;;;;;;;;;9.74;78.61;99503.69;1796656;79;20504;-77
2022/02/04 16:25:10;;;;;;;;;;;;;;;9.55;78.99;99493.81;1796370;78;20468;-76
2022/02/04 16:29:50;;;;;;;;;;;;;;;9.60;78.82;99494.16;1793894;79;20431;-79
2022/02/04 16:32:16;;;;;;;;;;;;;;;9.84;78.01;99493.80;1793327;78;20197;-80
2022/02/04 16:34:42;;;;;;;;;;;;;;;9.55;78.78;99485.91;1794543;78;21157;-79
2022/02/04 16:37:17;;;;;;;;;;;;;;;9.52;78.95;99484.92;1791849;78;20344;-80
2022/02/04 16:39:36;;;;;;;;;;;;;;;9.20;79.53;99481.78;1793784;78;20179;-79
2022/02/04 16:42:10;;;;;;;;;;;;;;;9.34;79.66;99478.02;1790979;79;20202;-79
2022/02/04 16:44:31;;;;;;;;;;;;;;;9.28;79.55;99478.67;1750726;79;20269;-78
2022/02/04 16:47:00;;;;;;;;;;;;;;;9.29;79.66;99476.38;1794111;79;21158;-78
2022/02/04 16:49:26;;;;;;;;;;;;;;;9.21;79.93;99471.08;1797534;79;20171;-79
2022/02/04 16:51:52;;;;;;;;;;;;;;;9.22;79.86;99472.74;1796378;78;20344;-78
2022/02/04 16:54:19;;;;;;;;;;;;;;;9.27;79.66;99473.06;1793197;79;20811;-79
2022/02/04 16:56:45;;;;;;;;;;;;;;;9.10;79.99;99472.73;1794478;78;20662;-79
2022/02/04 16:59:12;;;;;;;;;;;;;;;9.20;79.86;99470.78;1795774;79;21052;-81
2022/02/04 17:01:38;;;;;;;;;;;;;;;9.26;79.37;99464.85;1766385;79;20143;-82
2022/02/04 17:04:05;;;;;;;;;;;;;;;9.34;79.05;99459.57;1762786;78;20174;-81
2022/02/04 17:06:38;;;;;;;;;;;;;;;9.38;79.00;99464.52;1765105;78;20178;-79
2022/02/04 17:09:20;;;;;;;;;;;;;;;9.31;79.18;99465.17;1795942;78;20230;-80
2022/02/04 17:11:29;;;;;;;;;;;;;;;9.32;78.90;99466.83;1795195;79;20161;-84
2022/02/04 17:13:55;;;;;;;;;;;;;;;9.33;79.15;99471.09;1789847;78;20194;-83
2022/02/04 17:16:20;;;;;;;;;;;;;;;9.31;78.98;99466.48;1796003;79;20196;-84
2022/02/04 17:18:46;;;;;;;;;;;;;;;9.25;78.93;99471.09;1795556;78;20340;-80
2022/02/04 17:21:22;;;;;;;;;;;;;;;9.09;79.55;99471.92;1792276;79;20521;-81
2022/02/04 17:23:45;;;;;;;;;;;;;;;9.18;79.43;99470.09;1795716;79;20314;-83
2022/02/04 17:26:11;;;;;;;;;;;;;;;9.20;79.44;99468.14;1793125;79;20212;-80
2022/02/04 17:28:38;;;;;;;;;;;;;;;9.20;79.59;99466.83;1794331;78;20195;-80
2022/02/04 17:31:03;;;;;;;;;;;;;;;9.09;79.59;99468.44;1790730;78;20253;-79
2022/02/04 17:33:31;;;;;;;;;;;;;;;9.19;79.28;99463.85;1787904;78;20312;-80
2022/02/04 17:35:57;;;;;;;;;;;;;;;9.27;78.87;99466.48;1783628;78;21900;-80
2022/02/04 17:38:24;;;;;;;;;;;;;;;9.11;79.24;99463.86;1788485;78;20142;-81
2022/02/04 17:40:50;;;;;;;;;;;;;;;9.08;79.29;99463.67;1789101;78;20905;-81
2022/02/04 17:43:18;;;;;;;;;;;;;;;9.06;79.86;99468.77;1792467;79;20219;-82
2022/02/04 17:45:43;;;;;;;;;;;;;;;8.95;80.04;99464.67;1788503;79;20196;-83
2022/02/04 17:50:57;;;;;;;;;;;;;;;9.06;79.90;99460.86;1793077;78;20099;-82
2022/02/04 17:53:20;;;;;;;;;;;;;;;8.98;79.91;99451.98;1789990;78;20630;-84
2022/02/04 17:55:49;;;;;;;;;;;;;;;8.79;80.57;99449.64;1792511;79;20250;-81
2022/02/04 17:58:26;;;;;;;;;;;;;;;8.76;80.98;99449.97;1791963;77;20141;-80
2022/02/04 18:05:15;;;;;;;;;;;;;;;8.85;80.70;99448.19;1789712;79;20155;-80
2022/02/04 18:08:29;;;;;;;;;;;;;;;8.93;80.96;99445.55;1790389;78;20463;-82
2022/02/04 18:10:54;;;;;;;;;;;;;;;8.96;80.97;99450.02;1788499;78;20154;-81
2022/02/04 18:13:20;;;;;;;;;;;;;;;8.94;81.03;99448.02;1787213;79;21056;-82
2022/02/04 18:15:46;;;;;;;;;;;;;;;8.93;81.00;99445.08;1803438;79;20363;-81
2022/02/04 18:18:14;;;;;;;;;;;;;;;9.05;80.73;99437.66;1795159;78;20115;-82
2022/02/04 18:20:40;;;;;;;;;;;;;;;8.67;82.01;99433.83;1792375;78;20201;-83
2022/02/04 18:23:05;;;;;;;;;;;;;;;9.05;80.91;99438.17;1785569;78;20155;-81
2022/02/04 18:25:31;;;;;;;;;;;;;;;8.79;81.53;99429.43;1793327;78;21153;-81
2022/02/04 18:27:57;;;;;;;;;;;;;;;9.14;80.62;99442.45;1789646;79;20134;-79
2022/02/04 18:30:23;;;;;;;;;;;;;;;9.12;80.47;99433.40;1791725;79;20110;-80
2022/02/04 18:32:49;;;;;;;;;;;;;;;9.29;79.95;99428.95;1789961;79;21045;-81
2022/02/04 18:35:15;;;;;;;;;;;;;;;9.14;80.87;99424.02;1795136;79;20482;-81
2022/02/04 18:37:51;;;;;;;;;;;;;;;9.26;80.36;99424.48;1800514;78;21078;-81
2022/02/04 18:40:50;;;;;;;;;;;;;;;9.08;80.79;99431.26;1798370;78;20149;-81
2022/02/04 18:43:23;;;;;;;;;;;;;;;8.96;81.43;99428.95;1792273;78;20187;-81
2022/02/04 18:45:44;;;;;;;;;;;;;;;9.08;81.08;99429.94;1793818;79;20123;-81
2022/02/04 18:48:13;;;;;;;;;;;;;;;8.73;82.20;99434.50;1793857;79;20183;-81
2022/02/04 18:58:05;;;;;;;;;;;;;;;8.96;82.19;99427.64;1798685;79;20121;-82
2022/02/04 19:00:31;;;;;;;;;;;;;;;9.11;81.67;99433.56;1796653;78;20189;-83
2022/02/04 19:03:00;;;;;;;;;;;;;;;8.97;82.16;99439.80;1794412;78;21116;-81
2022/02/04 19:05:30;;;;;;;;;;;;;;;9.06;82.00;99429.26;1796306;79;20151;-81
2022/02/04 19:10:19;;;;;;;;;;;;;;;9.05;82.13;99422.37;1801724;78;20181;-81
2022/02/04 19:17:53;;;;;;;;;;;;;;;8.84;83.03;99424.15;1794687;79;20471;-81
2022/02/04 19:20:25;;;;;;;;;;;;;;;8.63;83.68;99425.44;1794522;79;20151;-81